createdAt,value
2022-08-04T00:00:40.432Z,63.53
2022-08-04T00:03:27.675Z,63.81
2022-08-04T00:06:05.462Z,62.61
2022-08-04T00:08:42.117Z,63.50
2022-08-04T00:11:15.376Z,63.23
2022-08-04T00:14:02.303Z,63.61
2022-08-04T00:16:38.704Z,62.90
2022-08-04T00:19:30.490Z,63.64
2022-08-04T00:22:01.010Z,62.68
2022-08-04T00:24:30.188Z,63.42
2022-08-04T00:26:57.267Z,62.80
2022-08-04T00:29:24.599Z,63.33
2022-08-04T00:31:56.443Z,64.02
2022-08-04T00:34:28.523Z,64.90
2022-08-04T00:36:55.740Z,65.15
2022-08-04T00:39:23.094Z,65.32
2022-08-04T00:42:19.108Z,64.68
2022-08-04T00:45:17.707Z,64.24
2022-08-04T00:48:10.717Z,65.22
2022-08-04T00:50:42.676Z,64.41
2022-08-04T00:53:28.004Z,63.77
2022-08-04T00:56:08.922Z,63.92
2022-08-04T00:59:09.664Z,64.84
2022-08-04T01:01:52.848Z,64.83
2022-08-04T01:04:42.162Z,63.73
2022-08-04T01:07:46.417Z,64.66
2022-08-04T01:10:42.254Z,63.96
2022-08-04T01:13:25.632Z,62.93
2022-08-04T01:15:56.354Z,64.08
2022-08-04T01:18:33.512Z,64.09
2022-08-04T01:21:11.256Z,64.92
2022-08-04T01:24:07.526Z,65.25
2022-08-04T01:26:57.682Z,64.34
2022-08-04T01:29:33.683Z,64.49
2022-08-04T01:32:21.072Z,64.62
2022-08-04T01:34:56.904Z,65.01
2022-08-04T01:37:41.841Z,64.29
2022-08-04T01:40:08.784Z,64.07
2022-08-04T01:42:36.944Z,64.51
2022-08-04T01:45:08.423Z,64.06
2022-08-04T01:47:37.752Z,64.80
2022-08-04T01:50:12.391Z,65.12
2022-08-04T01:52:40.609Z,64.08
2022-08-04T01:55:10.192Z,64.19
2022-08-04T01:57:45.931Z,64.21
2022-08-04T02:00:17.896Z,63.97
2022-08-04T02:02:45.768Z,65.85
2022-08-04T02:05:15.512Z,66.34
2022-08-04T02:08:01.298Z,65.78
2022-08-04T02:10:44.133Z,64.23
2022-08-04T02:13:33.551Z,65.70
2022-08-04T02:16:04.159Z,65.43
2022-08-04T02:18:41.557Z,65.36
2022-08-04T02:21:08.297Z,66.03
2022-08-04T02:23:37.279Z,65.20
2022-08-04T02:26:05.934Z,64.94
2022-08-04T02:28:36.170Z,64.54
2022-08-04T02:31:19.589Z,64.79
2022-08-04T02:33:52.734Z,63.22
2022-08-04T02:36:29.568Z,63.87
2022-08-04T02:38:59.524Z,62.51
2022-08-04T02:41:28.177Z,64.55
2022-08-04T02:44:02.520Z,64.81
2022-08-04T02:46:30.278Z,65.11
2022-08-04T02:48:57.454Z,65.25
2022-08-04T02:51:28.873Z,65.51
2022-08-04T02:53:57.824Z,64.87
2022-08-04T02:56:26.704Z,65.64
2022-08-04T02:58:58.435Z,66.43
2022-08-04T03:01:25.263Z,65.51
2022-08-04T03:04:00.695Z,65.55
2022-08-04T03:06:42.336Z,64.90
2022-08-04T03:09:24.703Z,65.59
2022-08-04T03:11:51.138Z,65.55
2022-08-04T03:14:51.667Z,64.86
2022-08-04T03:17:53.103Z,66.09
2022-08-04T03:20:50.591Z,67.20
2022-08-04T03:23:40.303Z,65.65
2022-08-04T03:26:25.192Z,66.83
2022-08-04T03:29:36.067Z,67.25
2022-08-04T03:32:12.995Z,66.49
2022-08-04T03:34:42.097Z,65.52
2022-08-04T03:37:15.539Z,64.48
2022-08-04T03:40:12.803Z,66.34
2022-08-04T03:42:51.634Z,65.80
2022-08-04T03:45:41.697Z,65.43
2022-08-04T03:48:44.785Z,65.57
2022-08-04T03:51:51.672Z,65.94
2022-08-04T03:54:32.507Z,67.43
2022-08-04T03:57:21.006Z,67.10
2022-08-04T03:59:57.280Z,67.39
2022-08-04T04:03:00.151Z,67.34
2022-08-04T04:05:29.913Z,67.18
2022-08-04T04:08:45.197Z,67.25
2022-08-04T04:11:34.771Z,66.72
2022-08-04T04:14:48.271Z,66.95
2022-08-04T04:17:20.858Z,67.79
2022-08-04T04:20:00.622Z,67.00
2022-08-04T04:22:51.426Z,67.89
2022-08-04T04:25:27.063Z,66.88
2022-08-04T04:28:44.693Z,67.32
2022-08-04T04:31:43.609Z,66.84
2022-08-04T04:34:25.424Z,66.44
2022-08-04T04:37:13.260Z,65.60
2022-08-04T04:39:51.899Z,65.01
2022-08-04T04:42:39.535Z,65.20
2022-08-04T04:45:23.448Z,62.39
2022-08-04T04:48:07.742Z,62.11
2022-08-04T04:50:54.689Z,62.04
2022-08-04T04:53:29.957Z,60.88
2022-08-04T04:56:30.996Z,61.04
2022-08-04T04:58:58.595Z,61.43
2022-08-04T05:02:09.667Z,62.54
2022-08-04T05:04:55.121Z,62.53
2022-08-04T05:07:38.070Z,62.27
2022-08-04T05:10:38.660Z,62.56
2022-08-04T05:14:35.211Z,61.77
2022-08-04T05:16:56.310Z,61.05
2022-08-04T05:19:34.898Z,60.11
2022-08-04T05:22:09.188Z,60.75
2022-08-04T05:24:39.504Z,60.87
2022-08-04T05:27:15.712Z,60.71
2022-08-04T05:29:50.285Z,60.41
2022-08-04T05:32:18.005Z,60.30
2022-08-04T05:34:49.653Z,60.49
2022-08-04T05:37:17.674Z,59.85
2022-08-04T05:39:58.919Z,59.32
2022-08-04T05:42:26.382Z,59.14
2022-08-04T05:44:53.546Z,58.84
2022-08-04T05:47:22.406Z,58.08
2022-08-04T05:50:01.334Z,58.80
2022-08-04T05:52:29.751Z,58.08
2022-08-04T05:54:57.099Z,58.56
2022-08-04T05:57:24.915Z,58.27
2022-08-04T05:59:52.183Z,57.24
2022-08-04T06:02:19.424Z,58.47
2022-08-04T06:04:49.344Z,56.44
2022-08-04T06:07:16.163Z,56.44
2022-08-04T06:09:42.985Z,56.56
2022-08-04T06:12:22.213Z,56.08
2022-08-04T06:14:52.889Z,56.64
2022-08-04T06:19:56.722Z,55.88
2022-08-04T06:20:19.930Z,56.84
2022-08-04T06:22:53.057Z,56.51
2022-08-04T06:25:22.841Z,55.26
2022-08-04T06:27:50.074Z,55.53
2022-08-04T06:30:19.230Z,54.88
2022-08-04T06:33:03.351Z,54.65
2022-08-04T06:35:32.854Z,54.13
2022-08-04T06:38:01.157Z,53.33
2022-08-04T06:40:30.822Z,54.07
2022-08-04T06:43:04.404Z,53.04
2022-08-04T06:45:34.123Z,53.17
2022-08-04T06:48:01.057Z,51.63
2022-08-04T06:51:28.658Z,52.51
2022-08-04T06:53:14.945Z,51.54
2022-08-04T06:55:45.494Z,51.20
2022-08-04T06:58:13.175Z,51.59
2022-08-04T07:00:42.157Z,51.48
2022-08-04T07:03:08.795Z,50.07
2022-08-04T07:05:35.991Z,49.31
2022-08-04T07:08:03.241Z,49.92
2022-08-04T07:10:31.417Z,50.55
2022-08-04T07:12:59.180Z,49.97
2022-08-04T07:15:26.453Z,49.77
2022-08-04T07:17:54.018Z,48.29
2022-08-04T07:20:35.289Z,49.57
2022-08-04T07:23:06.596Z,49.24
2022-08-04T07:25:58.843Z,48.81
2022-08-04T07:28:26.789Z,49.16
2022-08-04T07:30:54.752Z,49.14
2022-08-04T07:33:22.153Z,48.76
2022-08-04T07:36:06.039Z,49.08
2022-08-04T07:38:48.621Z,48.82
2022-08-04T07:41:40.387Z,47.78
2022-08-04T07:44:07.942Z,47.25
2022-08-04T07:46:35.173Z,47.17
2022-08-04T07:49:01.792Z,46.66
2022-08-04T07:51:30.420Z,46.39
2022-08-04T07:53:57.812Z,45.80
2022-08-04T07:56:26.376Z,46.32
2022-08-04T07:58:53.110Z,45.85
2022-08-04T08:01:19.909Z,45.64
2022-08-04T08:03:47.356Z,44.67
2022-08-04T08:06:17.811Z,44.40
2022-08-04T08:09:00.934Z,44.18
2022-08-04T08:12:35.502Z,43.90
2022-08-04T08:14:25.641Z,44.02
2022-08-04T08:16:52.332Z,43.26
2022-08-04T08:19:18.973Z,43.00
2022-08-04T08:21:59.606Z,42.22
2022-08-04T08:24:28.457Z,41.39
2022-08-04T08:26:56.809Z,41.92
2022-08-04T08:29:24.616Z,42.57
2022-08-04T08:31:56.639Z,41.45
2022-08-04T08:34:28.029Z,40.22
2022-08-04T08:37:04.289Z,39.96
2022-08-04T08:39:45.101Z,38.73
2022-08-04T08:42:50.326Z,40.53
2022-08-04T08:45:28.673Z,41.12
2022-08-04T08:48:46.709Z,38.54
2022-08-04T08:51:40.353Z,37.90
2022-08-04T08:54:32.658Z,39.42
2022-08-04T08:57:24.548Z,40.10
2022-08-04T09:00:03.209Z,38.18
2022-08-04T09:02:41.933Z,37.16
2022-08-04T09:05:24.804Z,38.02
2022-08-04T09:08:09.600Z,37.42
2022-08-04T09:10:46.470Z,39.71
2022-08-04T09:13:48.351Z,36.60
2022-08-04T09:16:17.853Z,38.34
2022-08-04T09:18:55.129Z,36.96
2022-08-04T09:21:38.394Z,37.37
2022-08-04T09:24:35.189Z,34.33
2022-08-04T09:27:28.662Z,35.72
2022-08-04T09:30:02.071Z,36.70
2022-08-04T09:32:38.638Z,36.02
2022-08-04T09:35:20.280Z,33.76
2022-08-04T09:38:26.446Z,35.48
2022-08-04T09:41:20.982Z,34.45
2022-08-04T09:44:52.268Z,34.82
2022-08-04T09:47:13.805Z,34.88
2022-08-04T09:49:45.908Z,33.54
2022-08-04T09:52:27.943Z,31.94
2022-08-04T09:55:12.108Z,34.77
2022-08-04T09:58:00.523Z,34.40
2022-08-04T10:00:40.849Z,34.52
2022-08-04T10:03:11.577Z,34.92
2022-08-04T10:06:11.065Z,34.96
2022-08-04T10:09:11.651Z,34.34
2022-08-04T10:12:03.902Z,36.07
2022-08-04T10:15:08.094Z,34.90
2022-08-04T10:17:50.384Z,37.45
2022-08-04T10:20:46.423Z,34.96
2022-08-04T10:23:56.500Z,34.53
2022-08-04T10:26:31.736Z,32.48
2022-08-04T10:29:03.673Z,35.02
2022-08-04T10:31:34.068Z,35.01
2022-08-04T10:34:03.223Z,34.77
2022-08-04T10:36:41.256Z,34.93
2022-08-04T10:39:42.234Z,33.51
2022-08-04T10:42:17.556Z,34.63
2022-08-04T10:44:57.735Z,31.40
2022-08-04T10:47:26.634Z,30.72
2022-08-04T10:50:00.527Z,33.97
2022-08-04T10:52:34.360Z,33.40
2022-08-04T10:55:07.277Z,32.10
2022-08-04T10:57:47.324Z,32.87
2022-08-04T11:00:19.733Z,32.04
2022-08-04T11:03:05.776Z,30.54
2022-08-04T11:05:44.412Z,31.87
2022-08-04T11:08:24.717Z,32.95
2022-08-04T11:11:22.238Z,32.80
2022-08-04T11:13:54.674Z,33.06
2022-08-04T11:16:24.455Z,33.30
2022-08-04T11:19:08.837Z,32.53
2022-08-04T11:21:40.348Z,32.24
2022-08-04T11:24:26.252Z,33.24
2022-08-04T11:27:01.473Z,30.70
2022-08-04T11:30:06.517Z,30.52
2022-08-04T11:32:47.417Z,30.47
2022-08-04T11:35:27.901Z,31.37
2022-08-04T11:38:52.477Z,31.09
2022-08-04T11:41:23.478Z,30.67
2022-08-04T11:44:03.221Z,32.18
2022-08-04T11:46:40.047Z,31.18
2022-08-04T11:49:57.562Z,29.47
2022-08-04T11:52:22.196Z,30.96
2022-08-04T11:54:52.738Z,29.15
2022-08-04T11:57:22.852Z,28.73
2022-08-04T12:00:07.750Z,30.06
2022-08-04T12:02:57.224Z,30.34
2022-08-04T12:05:37.865Z,31.44
2022-08-04T12:08:22.279Z,32.66
2022-08-04T12:11:11.015Z,33.56
2022-08-04T12:14:05.046Z,32.53
2022-08-04T12:16:53.989Z,32.34
2022-08-04T12:19:54.730Z,32.71
2022-08-04T12:22:25.116Z,32.41
2022-08-04T12:25:08.063Z,31.26
2022-08-04T12:27:42.902Z,31.91
2022-08-04T12:30:59.636Z,31.87
2022-08-04T12:34:03.021Z,32.53
2022-08-04T12:36:20.947Z,31.34
2022-08-04T12:39:10.387Z,31.50
2022-08-04T12:41:42.285Z,29.74
2022-08-04T12:44:36.537Z,31.63
2022-08-04T12:47:36.493Z,31.69
2022-08-04T12:49:48.131Z,31.75
2022-08-04T12:52:51.806Z,41.57
2022-08-04T12:55:15.592Z,42.05
2022-08-04T12:57:42.791Z,35.24
2022-08-04T13:00:10.886Z,33.81
2022-08-04T13:02:48.127Z,34.09
2022-08-04T13:05:17.118Z,33.16
2022-08-04T13:07:53.317Z,33.23
2022-08-04T13:10:30.393Z,30.97
2022-08-04T13:12:59.202Z,31.27
2022-08-04T13:15:28.008Z,32.87
2022-08-04T13:18:05.231Z,31.89
2022-08-04T13:20:42.449Z,32.47
2022-08-04T13:23:12.347Z,32.41
2022-08-04T13:26:45.048Z,38.74
2022-08-04T13:28:32.312Z,33.40
2022-08-04T13:31:00.647Z,32.62
2022-08-04T13:33:36.072Z,29.71
2022-08-04T13:36:03.869Z,32.54
2022-08-04T13:38:31.520Z,31.40
2022-08-04T13:41:02.449Z,31.13
2022-08-04T13:44:16.492Z,30.26
2022-08-04T13:46:27.787Z,31.44
2022-08-04T13:52:04.672Z,30.98
2022-08-04T13:54:45.129Z,33.57
2022-08-04T13:57:15.922Z,28.71
2022-08-04T13:59:45.798Z,30.59
2022-08-04T14:02:26.173Z,30.64
2022-08-04T14:04:57.241Z,30.46
2022-08-04T14:07:25.699Z,30.24
2022-08-04T14:10:02.921Z,31.33
2022-08-04T14:12:45.830Z,29.83
2022-08-04T14:15:54.946Z,30.49
2022-08-04T14:18:25.664Z,28.89
2022-08-04T14:21:09.319Z,30.09
2022-08-04T14:23:47.212Z,28.79
2022-08-04T14:26:18.840Z,28.69
2022-08-04T14:29:25.475Z,29.78
2022-08-04T14:31:32.354Z,30.13
2022-08-04T14:34:04.345Z,29.74
2022-08-04T14:36:49.589Z,30.02
2022-08-04T14:40:07.885Z,28.95
2022-08-04T14:42:54.696Z,30.93
2022-08-04T14:45:37.330Z,30.54
2022-08-04T14:48:18.802Z,31.18
2022-08-04T14:50:48.410Z,30.56
2022-08-04T14:53:17.361Z,29.40
2022-08-04T14:55:56.805Z,29.44
2022-08-04T14:58:35.009Z,29.95
2022-08-04T15:01:10.295Z,29.55
2022-08-04T15:03:50.133Z,28.34
2022-08-04T15:06:23.219Z,27.34
2022-08-04T15:08:51.241Z,29.52
2022-08-04T15:11:23.171Z,29.32
2022-08-04T15:13:50.582Z,29.70
2022-08-04T15:16:17.351Z,29.55
2022-08-04T15:18:44.138Z,30.09
2022-08-04T15:21:16.043Z,27.81
2022-08-04T15:23:42.683Z,29.16
2022-08-04T15:26:15.642Z,28.29
2022-08-04T15:28:48.783Z,28.46
2022-08-04T15:32:05.338Z,28.00
2022-08-04T15:34:02.636Z,28.17
2022-08-04T15:36:56.297Z,27.19
2022-08-04T15:39:39.214Z,27.71
2022-08-04T15:42:24.047Z,29.08
2022-08-04T15:45:13.693Z,27.12
2022-08-04T15:47:40.947Z,28.35
2022-08-04T15:50:12.222Z,29.02
2022-08-04T15:53:01.206Z,30.02
2022-08-04T15:55:39.586Z,28.02
2022-08-04T15:58:07.964Z,28.14
2022-08-04T16:00:49.858Z,29.00
2022-08-04T16:03:58.502Z,31.06
2022-08-04T16:06:20.872Z,30.70
2022-08-04T16:08:47.289Z,32.47
2022-08-04T16:11:31.499Z,34.99
2022-08-04T16:13:58.653Z,32.30
2022-08-04T16:16:31.513Z,31.83
2022-08-04T16:19:16.763Z,31.78
2022-08-04T16:21:54.491Z,32.54
2022-08-04T16:24:21.887Z,32.14
2022-08-04T16:27:08.454Z,32.54
2022-08-04T16:29:38.068Z,33.05
2022-08-04T16:32:04.780Z,33.74
2022-08-04T16:34:49.857Z,31.59
2022-08-04T16:37:19.065Z,35.75
2022-08-04T16:39:49.975Z,35.08
2022-08-04T16:42:30.293Z,35.12
2022-08-04T16:45:09.228Z,34.60
2022-08-04T16:47:48.363Z,34.63
2022-08-04T16:50:23.032Z,33.95
2022-08-04T16:52:54.229Z,34.04
2022-08-04T16:55:25.532Z,32.03
2022-08-04T16:57:55.858Z,33.46
2022-08-04T17:00:36.192Z,31.94
2022-08-04T17:03:06.811Z,32.65
2022-08-04T17:05:39.409Z,33.19
2022-08-04T17:10:55.998Z,34.38
2022-08-04T17:14:02.466Z,34.88
2022-08-04T17:16:18.818Z,36.06
2022-08-04T17:18:51.083Z,33.48
2022-08-04T17:21:30.224Z,33.74
2022-08-04T17:24:13.130Z,34.16
2022-08-04T17:26:45.259Z,33.55
2022-08-04T17:29:20.066Z,34.37
2022-08-04T17:31:46.863Z,34.26
2022-08-04T17:34:16.752Z,35.46
2022-08-04T17:36:46.153Z,34.49
2022-08-04T17:39:21.358Z,33.47
2022-08-04T17:41:49.061Z,33.71
2022-08-04T17:44:16.614Z,34.47
2022-08-04T17:46:48.423Z,33.93
2022-08-04T17:49:18.215Z,34.59
2022-08-04T17:52:05.298Z,36.99
2022-08-04T17:54:37.293Z,37.47
2022-08-04T17:57:20.137Z,39.59
2022-08-04T17:59:59.296Z,40.32
2022-08-04T18:02:32.533Z,39.76
2022-08-04T18:05:07.884Z,40.45
2022-08-04T18:08:38.682Z,42.09
2022-08-04T18:10:52.651Z,41.91
2022-08-04T18:13:26.948Z,42.57
2022-08-04T18:16:09.010Z,42.78
2022-08-04T18:18:41.393Z,43.28
2022-08-04T18:21:15.719Z,42.57
2022-08-04T18:23:51.109Z,42.38
2022-08-04T18:26:18.192Z,42.65
2022-08-04T18:28:50.618Z,42.77
2022-08-04T18:31:17.152Z,42.89
2022-08-04T18:33:43.743Z,45.13
2022-08-04T18:36:34.558Z,45.80
2022-08-04T18:39:12.444Z,45.38
2022-08-04T18:42:01.771Z,45.87
2022-08-04T18:44:51.927Z,44.80
2022-08-04T18:47:23.093Z,45.16
2022-08-04T18:50:40.214Z,45.09
2022-08-04T18:52:42.105Z,46.99
2022-08-04T18:55:13.299Z,45.81
2022-08-04T18:58:01.462Z,46.53
2022-08-04T19:00:32.735Z,47.53
2022-08-04T19:03:01.164Z,47.24
2022-08-04T19:05:37.792Z,47.20
2022-08-04T19:10:59.649Z,48.76
2022-08-04T19:13:27.857Z,47.38
2022-08-04T19:15:55.675Z,48.98
2022-08-04T19:18:25.583Z,47.80
2022-08-04T19:20:55.383Z,48.20
2022-08-04T19:24:29.532Z,49.85
2022-08-04T19:26:23.744Z,49.83
2022-08-04T19:28:54.991Z,48.63
2022-08-04T19:31:28.203Z,49.89
2022-08-04T19:34:04.730Z,51.17
2022-08-04T19:36:34.544Z,52.68
2022-08-04T19:39:11.604Z,55.20
2022-08-04T19:42:04.835Z,56.68
2022-08-04T19:44:25.098Z,57.21
2022-08-04T19:46:57.176Z,55.63
2022-08-04T19:50:03.202Z,53.66
2022-08-04T19:52:14.596Z,51.62
2022-08-04T19:55:00.188Z,50.98
2022-08-04T19:57:37.976Z,51.53
2022-08-04T20:00:10.088Z,51.20
2022-08-04T20:02:37.332Z,52.76
2022-08-04T20:05:08.646Z,51.40
2022-08-04T20:07:35.653Z,51.40
2022-08-04T20:10:04.804Z,51.15
2022-08-04T20:12:31.872Z,51.62
2022-08-04T20:14:59.604Z,51.96
2022-08-04T20:20:13.514Z,52.94
2022-08-04T20:22:52.854Z,55.09
2022-08-04T20:25:36.741Z,54.33
2022-08-04T20:28:04.907Z,54.97
2022-08-04T20:30:33.160Z,54.43
2022-08-04T20:33:01.128Z,54.21
2022-08-04T20:35:29.316Z,53.63
2022-08-04T20:38:00.749Z,53.92
2022-08-04T20:40:28.756Z,54.12
2022-08-04T20:42:57.412Z,55.55
2022-08-04T20:45:56.861Z,55.24
2022-08-04T20:48:11.673Z,55.38
2022-08-04T20:50:38.218Z,54.95
2022-08-04T20:53:16.844Z,55.12
2022-08-04T20:55:47.271Z,55.46
2022-08-04T20:58:27.591Z,55.52
2022-08-04T21:00:54.900Z,54.68
2022-08-04T21:03:21.516Z,55.38
2022-08-04T21:06:08.522Z,56.19
2022-08-04T21:08:35.081Z,55.92
2022-08-04T21:11:03.161Z,56.33
2022-08-04T21:13:52.263Z,55.46
2022-08-04T21:16:55.072Z,56.36
2022-08-04T21:19:13.484Z,55.75
2022-08-04T21:21:41.328Z,56.06
2022-08-04T21:24:09.317Z,56.41
2022-08-04T21:26:36.053Z,55.68
2022-08-04T21:29:04.624Z,55.78
2022-08-04T21:31:32.545Z,55.38
2022-08-04T21:34:17.099Z,54.74
2022-08-04T21:37:03.907Z,54.86
2022-08-04T21:39:32.635Z,53.79
2022-08-04T21:44:46.567Z,54.94
2022-08-04T21:47:45.916Z,54.53
2022-08-04T21:50:06.603Z,54.53
2022-08-04T21:52:33.413Z,57.05
2022-08-04T21:54:59.967Z,55.98
2022-08-04T21:57:27.480Z,56.31
2022-08-04T21:59:54.695Z,56.20
2022-08-04T22:02:21.924Z,56.93
2022-08-04T22:04:49.510Z,57.79
2022-08-04T22:07:16.899Z,57.50
2022-08-04T22:10:02.283Z,58.32
2022-08-04T22:12:30.378Z,59.24
2022-08-04T22:14:59.709Z,58.49
2022-08-04T22:17:35.211Z,59.45
2022-08-04T22:20:03.935Z,59.13
2022-08-04T22:22:34.347Z,59.29
2022-08-04T22:25:12.424Z,59.38
2022-08-04T22:28:00.837Z,59.46
2022-08-04T22:30:33.160Z,59.01
2022-08-04T22:33:04.624Z,58.79
2022-08-04T22:35:43.688Z,58.76
2022-08-04T22:38:24.080Z,58.28
2022-08-04T22:41:05.419Z,58.60
2022-08-04T22:43:34.549Z,58.18
2022-08-04T22:46:05.408Z,57.31
2022-08-04T22:48:34.766Z,57.77
2022-08-04T22:51:03.008Z,58.41
2022-08-04T22:53:30.377Z,57.97
2022-08-04T22:56:09.781Z,58.16
2022-08-04T22:58:40.085Z,59.81
2022-08-04T23:01:08.290Z,60.04
2022-08-04T23:03:37.501Z,58.39
2022-08-04T23:06:10.957Z,58.09
2022-08-04T23:08:39.213Z,57.44
2022-08-04T23:11:10.628Z,58.48
2022-08-04T23:13:37.731Z,59.60
2022-08-04T23:16:10.197Z,60.38
2022-08-04T23:18:40.221Z,60.58
2022-08-04T23:21:09.843Z,59.53
2022-08-04T23:23:37.082Z,60.47
2022-08-04T23:26:15.789Z,60.53
2022-08-04T23:28:43.310Z,60.27
2022-08-04T23:31:10.059Z,59.93
2022-08-04T23:33:51.421Z,60.15
2022-08-04T23:36:26.412Z,59.82
2022-08-04T23:39:03.925Z,60.13
2022-08-04T23:41:55.460Z,61.52
2022-08-04T23:44:25.119Z,60.66
2022-08-04T23:47:04.004Z,60.34
2022-08-04T23:49:43.543Z,59.63
2022-08-04T23:52:28.140Z,60.66
2022-08-04T23:54:58.649Z,60.40
2022-08-04T23:58:02.572Z,60.71
